createdAt,value
2018-11-14T00:00:21.829Z,5.10
2018-11-14T00:02:50.381Z,5.10
2018-11-14T00:05:18.590Z,5.00
2018-11-14T00:07:46.843Z,4.90
2018-11-14T00:10:15.099Z,4.90
2018-11-14T00:12:43.317Z,5.00
2018-11-14T00:15:13.616Z,5.00
2018-11-14T00:17:42.892Z,5.00
2018-11-14T00:20:11.767Z,5.00
2018-11-14T00:22:41.086Z,5.10
2018-11-14T00:25:09.295Z,5.20
2018-11-14T00:27:37.569Z,5.30
2018-11-14T00:30:08.202Z,5.20
2018-11-14T00:32:36.392Z,5.20
2018-11-14T00:35:04.798Z,5.20
2018-11-14T00:37:32.997Z,5.10
2018-11-14T00:40:01.208Z,5.10
2018-11-14T00:42:29.410Z,5.10
2018-11-14T00:44:57.632Z,5.10
2018-11-14T00:47:25.827Z,5.20
2018-11-14T00:49:54.069Z,5.10
2018-11-14T00:52:22.361Z,5.10
2018-11-14T00:54:50.613Z,5.10
2018-11-14T00:57:18.802Z,5.10
2018-11-14T00:59:47.039Z,5.10
2018-11-14T01:02:15.286Z,5.10
2018-11-14T01:04:43.510Z,5.00
2018-11-14T01:07:11.745Z,5.00
2018-11-14T01:09:40.011Z,5.00
2018-11-14T01:12:08.266Z,5.10
2018-11-14T01:14:36.546Z,5.10
2018-11-14T01:17:05.467Z,5.10
2018-11-14T01:19:33.689Z,5.10
2018-11-14T01:22:01.965Z,5.00
2018-11-14T01:24:30.168Z,5.00
2018-11-14T01:26:58.474Z,4.90
2018-11-14T01:29:26.642Z,4.90
2018-11-14T01:31:54.870Z,4.80
2018-11-14T01:34:23.086Z,4.70
2018-11-14T01:36:51.321Z,4.70
2018-11-14T01:39:19.550Z,4.70
2018-11-14T01:41:47.783Z,4.70
2018-11-14T01:44:16.103Z,4.70
2018-11-14T01:46:44.352Z,4.70
2018-11-14T01:49:12.609Z,4.70
2018-11-14T01:51:40.830Z,4.70
2018-11-14T01:54:09.148Z,4.60
2018-11-14T01:56:37.432Z,4.60
2018-11-14T01:59:05.702Z,4.50
2018-11-14T02:01:33.995Z,4.60
2018-11-14T02:04:02.219Z,4.60
2018-11-14T02:06:30.478Z,4.60
2018-11-14T02:08:58.706Z,4.60
2018-11-14T02:11:26.949Z,4.70
2018-11-14T02:13:55.189Z,4.70
2018-11-14T02:16:23.406Z,4.80
2018-11-14T02:18:51.702Z,4.80
2018-11-14T02:21:19.972Z,4.90
2018-11-14T02:23:48.306Z,4.90
2018-11-14T02:26:16.566Z,4.90
2018-11-14T02:28:44.809Z,5.00
2018-11-14T02:31:13.055Z,5.00
2018-11-14T02:33:41.262Z,4.90
2018-11-14T02:36:09.494Z,4.90
2018-11-14T02:38:37.715Z,4.80
2018-11-14T02:41:07.470Z,4.80
2018-11-14T02:43:35.715Z,4.80
2018-11-14T02:46:03.955Z,4.80
2018-11-14T02:48:32.213Z,4.70
2018-11-14T02:51:11.907Z,4.70
2018-11-14T02:53:40.396Z,4.60
2018-11-14T02:56:10.589Z,4.60
2018-11-14T02:58:39.106Z,4.70
2018-11-14T03:01:07.830Z,4.70
2018-11-14T03:03:36.069Z,4.70
2018-11-14T03:06:04.307Z,4.80
2018-11-14T03:08:32.674Z,4.70
2018-11-14T03:11:00.898Z,4.80
2018-11-14T03:13:29.108Z,4.80
2018-11-14T03:15:57.318Z,4.80
2018-11-14T03:18:25.542Z,4.70
2018-11-14T03:20:53.754Z,4.80
2018-11-14T03:23:21.990Z,4.80
2018-11-14T03:25:50.182Z,4.80
2018-11-14T03:28:18.403Z,4.90
2018-11-14T03:30:46.609Z,4.90
2018-11-14T03:33:14.830Z,5.00
2018-11-14T03:35:48.536Z,5.00
2018-11-14T03:38:16.797Z,5.10
2018-11-14T03:40:45.029Z,5.10
2018-11-14T03:43:13.311Z,5.10
2018-11-14T03:45:41.552Z,5.10
2018-11-14T03:48:09.754Z,5.10
2018-11-14T03:50:37.938Z,5.10
2018-11-14T03:53:06.551Z,4.80
2018-11-14T03:55:35.345Z,4.60
2018-11-14T03:58:03.754Z,4.50
2018-11-14T04:00:32.056Z,4.40
2018-11-14T04:03:00.283Z,4.40
2018-11-14T04:05:28.562Z,4.30
2018-11-14T04:07:56.728Z,4.20
2018-11-14T04:10:24.967Z,4.20
2018-11-14T04:12:53.239Z,4.20
2018-11-14T04:15:21.511Z,4.20
2018-11-14T04:17:49.742Z,4.10
2018-11-14T04:20:18.355Z,4.10
2018-11-14T04:22:47.262Z,4.00
2018-11-14T04:25:17.778Z,4.00
2018-11-14T04:27:46.741Z,3.90
2018-11-14T04:30:16.535Z,3.90
2018-11-14T04:32:44.857Z,3.80
2018-11-14T04:35:14.317Z,3.60
2018-11-14T04:37:42.554Z,3.50
2018-11-14T04:40:12.764Z,3.50
2018-11-14T04:42:41.038Z,3.40
2018-11-14T04:45:11.349Z,3.40
2018-11-14T04:47:39.566Z,3.30
2018-11-14T04:50:09.690Z,3.20
2018-11-14T04:52:37.950Z,3.20
2018-11-14T04:55:07.663Z,3.10
2018-11-14T04:57:35.904Z,3.00
2018-11-14T05:00:04.508Z,3.00
2018-11-14T05:02:32.821Z,3.00
2018-11-14T05:05:01.039Z,3.00
2018-11-14T05:07:29.300Z,3.00
2018-11-14T05:09:57.540Z,2.90
2018-11-14T05:12:25.782Z,3.00
2018-11-14T05:14:54.147Z,3.10
2018-11-14T05:17:22.431Z,3.10
2018-11-14T05:19:50.748Z,3.10
2018-11-14T05:22:19.017Z,3.10
2018-11-14T05:24:47.344Z,3.20
2018-11-14T05:27:15.512Z,3.30
2018-11-14T05:29:43.789Z,3.40
2018-11-14T05:32:12.043Z,3.40
2018-11-14T05:34:40.281Z,3.40
2018-11-14T05:37:08.533Z,3.40
2018-11-14T05:39:36.848Z,3.50
2018-11-14T05:42:05.123Z,3.70
2018-11-14T05:44:33.426Z,3.70
2018-11-14T05:47:01.740Z,3.70
2018-11-14T05:49:29.994Z,3.80
2018-11-14T05:51:58.229Z,3.80
2018-11-14T05:54:26.479Z,3.80
2018-11-14T05:56:54.745Z,3.80
2018-11-14T05:59:23.015Z,3.90
2018-11-14T06:01:51.301Z,3.60
2018-11-14T06:04:19.549Z,3.40
2018-11-14T06:06:47.776Z,3.30
2018-11-14T06:09:16.015Z,3.20
2018-11-14T06:11:44.274Z,3.30
2018-11-14T06:14:12.493Z,3.20
2018-11-14T06:16:40.730Z,3.20
2018-11-14T06:19:08.990Z,3.20
2018-11-14T06:21:37.215Z,3.30
2018-11-14T06:24:05.483Z,3.40
2018-11-14T06:26:33.782Z,3.30
2018-11-14T06:29:02.018Z,3.20
2018-11-14T06:31:30.308Z,3.10
2018-11-14T06:33:58.558Z,3.20
2018-11-14T06:36:26.816Z,3.20
2018-11-14T06:38:55.051Z,3.00
2018-11-14T06:41:23.371Z,3.00
2018-11-14T06:43:51.616Z,3.10
2018-11-14T06:46:19.839Z,3.20
2018-11-14T06:48:48.141Z,3.20
2018-11-14T06:51:16.412Z,3.10
2018-11-14T06:53:44.709Z,3.00
2018-11-14T06:56:13.095Z,3.00
2018-11-14T06:58:41.400Z,3.20
2018-11-14T07:01:09.634Z,3.10
2018-11-14T07:03:37.863Z,3.10
2018-11-14T07:06:06.338Z,3.20
2018-11-14T07:08:34.406Z,3.30
2018-11-14T07:11:02.727Z,3.40
2018-11-14T07:13:30.974Z,3.40
2018-11-14T07:15:59.258Z,3.50
2018-11-14T07:18:27.570Z,3.60
2018-11-14T07:20:55.816Z,3.60
2018-11-14T07:23:24.194Z,3.40
2018-11-14T07:25:52.493Z,3.30
2018-11-14T07:28:20.764Z,3.40
2018-11-14T07:30:49.081Z,3.40
2018-11-14T07:33:17.420Z,3.40
2018-11-14T07:35:45.671Z,3.50
2018-11-14T07:38:47.728Z,3.40
2018-11-14T07:41:26.190Z,3.40
2018-11-14T07:43:54.498Z,3.50
2018-11-14T07:46:23.434Z,3.50
2018-11-14T07:48:51.956Z,3.60
2018-11-14T07:51:20.290Z,3.60
2018-11-14T07:53:48.514Z,3.60
2018-11-14T07:56:16.722Z,3.70
2018-11-14T07:58:44.962Z,3.80
2018-11-14T08:01:13.394Z,3.80
2018-11-14T08:03:41.617Z,3.80
2018-11-14T08:06:09.854Z,4.00
2018-11-14T08:08:38.120Z,4.00
2018-11-14T08:11:07.071Z,4.10
2018-11-14T08:13:36.163Z,4.00
2018-11-14T08:16:04.665Z,3.90
2018-11-14T08:18:32.967Z,4.10
2018-11-14T08:21:02.109Z,4.20
2018-11-14T08:23:30.318Z,4.30
2018-11-14T08:25:58.610Z,4.40
2018-11-14T08:28:26.960Z,4.50
2018-11-14T08:30:55.165Z,4.60
2018-11-14T08:33:23.491Z,4.40
2018-11-14T08:35:51.752Z,4.30
2018-11-14T08:38:19.991Z,4.30
2018-11-14T08:40:48.252Z,4.20
2018-11-14T08:43:16.454Z,4.10
2018-11-14T08:45:44.707Z,4.10
2018-11-14T08:48:12.942Z,4.20
2018-11-14T08:50:41.188Z,4.30
2018-11-14T08:53:10.218Z,4.30
2018-11-14T08:55:38.445Z,4.30
2018-11-14T08:58:08.937Z,4.40
2018-11-14T09:00:37.096Z,4.40
2018-11-14T09:03:06.729Z,4.40
2018-11-14T09:05:34.956Z,4.50
2018-11-14T09:08:03.231Z,4.60
2018-11-14T09:10:31.468Z,4.80
2018-11-14T09:12:59.792Z,4.80
2018-11-14T09:15:27.944Z,4.90
2018-11-14T09:17:56.164Z,5.10
2018-11-14T09:20:25.967Z,5.10
2018-11-14T09:22:54.203Z,5.10
2018-11-14T09:25:24.646Z,5.20
2018-11-14T09:27:52.859Z,5.20
2018-11-14T09:30:22.158Z,5.30
2018-11-14T09:32:50.372Z,5.40
2018-11-14T09:35:19.835Z,5.40
2018-11-14T09:37:48.026Z,5.60
2018-11-14T09:40:17.733Z,5.80
2018-11-14T09:42:45.967Z,5.70
2018-11-14T09:45:15.527Z,5.60
2018-11-14T09:47:43.737Z,5.80
2018-11-14T09:50:21.874Z,5.90
2018-11-14T09:52:55.769Z,5.80
2018-11-14T09:55:23.956Z,5.90
2018-11-14T09:57:52.191Z,6.10
2018-11-14T10:00:24.753Z,6.30
2018-11-14T10:02:54.816Z,6.50
2018-11-14T10:05:23.751Z,6.50
2018-11-14T10:07:52.026Z,6.50
2018-11-14T10:10:21.222Z,6.70
2018-11-14T10:12:49.513Z,6.80
2018-11-14T10:15:19.843Z,6.80
2018-11-14T10:17:48.532Z,6.50
2018-11-14T10:20:19.959Z,6.40
2018-11-14T10:22:48.207Z,6.60
2018-11-14T10:25:17.247Z,6.70
2018-11-14T10:27:46.036Z,6.60
2018-11-14T10:30:19.458Z,6.20
2018-11-14T10:32:48.423Z,6.00
2018-11-14T10:35:16.691Z,5.90
2018-11-14T10:37:45.179Z,5.60
2018-11-14T10:40:17.459Z,5.50
2018-11-14T10:42:45.852Z,5.60
2018-11-14T10:45:17.487Z,5.80
2018-11-14T10:47:45.803Z,6.00
2018-11-14T10:50:16.531Z,5.90
2018-11-14T10:52:44.877Z,5.80
2018-11-14T10:55:14.107Z,6.00
2018-11-14T10:57:42.389Z,6.00
2018-11-14T11:00:21.149Z,5.90
2018-11-14T11:02:54.830Z,6.10
2018-11-14T11:05:28.614Z,6.10
2018-11-14T11:08:02.303Z,6.20
2018-11-14T11:10:35.946Z,6.00
2018-11-14T11:13:09.627Z,5.90
2018-11-14T11:15:43.278Z,5.90
2018-11-14T11:18:14.159Z,6.10
2018-11-14T11:20:42.743Z,5.90
2018-11-14T11:23:11.048Z,5.80
2018-11-14T11:25:39.537Z,6.00
2018-11-14T11:28:07.924Z,6.00
2018-11-14T11:30:36.386Z,6.00
2018-11-14T11:33:05.833Z,5.90
2018-11-14T11:35:34.134Z,5.80
2018-11-14T11:38:02.501Z,5.80
2018-11-14T11:40:31.048Z,5.80
2018-11-14T11:42:59.312Z,5.80
2018-11-14T11:45:27.580Z,5.80
2018-11-14T11:47:55.818Z,6.00
2018-11-14T11:50:24.317Z,6.30
2018-11-14T11:52:52.544Z,6.40
2018-11-14T11:55:20.822Z,6.40
2018-11-14T11:57:49.099Z,6.50
2018-11-14T12:00:17.510Z,6.50
2018-11-14T12:02:45.621Z,6.70
2018-11-14T12:05:14.573Z,7.00
2018-11-14T12:07:43.261Z,6.90
2018-11-14T12:10:13.097Z,6.90
2018-11-14T12:12:42.229Z,6.80
2018-11-14T12:15:11.636Z,6.80
2018-11-14T12:17:40.580Z,7.10
2018-11-14T12:20:09.975Z,7.10
2018-11-14T12:22:39.179Z,7.10
2018-11-14T12:25:08.955Z,7.10
2018-11-14T12:27:37.281Z,7.20
2018-11-14T12:30:08.858Z,7.20
2018-11-14T12:32:36.976Z,7.20
2018-11-14T12:35:06.838Z,7.20
2018-11-14T12:37:35.011Z,7.20
2018-11-14T12:40:03.250Z,7.20
2018-11-14T12:42:31.629Z,7.30
2018-11-14T12:44:59.865Z,7.50
2018-11-14T12:47:28.321Z,7.40
2018-11-14T12:49:56.530Z,7.20
2018-11-14T12:52:24.811Z,7.10
2018-11-14T12:54:52.999Z,7.20
2018-11-14T12:57:21.215Z,7.20
2018-11-14T12:59:49.479Z,7.20
2018-11-14T13:02:17.654Z,7.10
2018-11-14T13:04:45.935Z,7.20
2018-11-14T13:07:14.134Z,7.20
2018-11-14T13:09:42.335Z,7.10
2018-11-14T13:12:10.603Z,7.30
2018-11-14T13:14:38.842Z,7.10
2018-11-14T13:17:07.129Z,7.10
2018-11-14T13:19:35.446Z,7.00
2018-11-14T13:22:03.756Z,7.00
2018-11-14T13:24:32.048Z,7.00
2018-11-14T13:27:00.645Z,7.10
2018-11-14T13:29:29.258Z,7.10
2018-11-14T13:31:57.498Z,7.20
2018-11-14T13:34:26.099Z,7.20
2018-11-14T13:36:54.352Z,7.50
2018-11-14T13:39:22.736Z,7.50
2018-11-14T13:41:50.956Z,7.30
2018-11-14T13:44:19.224Z,7.20
2018-11-14T13:46:47.458Z,7.20
2018-11-14T13:49:15.920Z,7.20
2018-11-14T13:51:44.011Z,7.20
2018-11-14T13:54:12.271Z,7.30
2018-11-14T13:56:40.526Z,7.30
2018-11-14T13:59:08.734Z,7.30
2018-11-14T14:01:37.005Z,7.20
2018-11-14T14:04:05.370Z,7.30
2018-11-14T14:06:33.603Z,7.40
2018-11-14T14:09:01.818Z,7.40
2018-11-14T14:11:30.120Z,7.50
2018-11-14T14:14:03.778Z,7.40
2018-11-14T14:16:32.076Z,7.30
2018-11-14T14:19:00.237Z,7.20
2018-11-14T14:21:28.521Z,7.10
2018-11-14T14:23:56.722Z,7.10
2018-11-14T14:26:25.010Z,7.20
2018-11-14T14:28:53.243Z,7.10
2018-11-14T14:31:21.455Z,7.10
2018-11-14T14:33:49.647Z,7.10
2018-11-14T14:36:17.902Z,7.10
2018-11-14T14:38:46.118Z,7.00
2018-11-14T14:41:14.342Z,7.10
2018-11-14T14:43:42.598Z,7.10
2018-11-14T14:46:10.790Z,7.20
2018-11-14T14:48:39.042Z,7.30
2018-11-14T14:51:07.248Z,7.40
2018-11-14T14:53:35.493Z,7.40
2018-11-14T14:56:03.698Z,7.40
2018-11-14T14:58:31.946Z,7.50
2018-11-14T15:01:00.205Z,7.50
2018-11-14T15:03:28.487Z,7.30
2018-11-14T15:05:58.854Z,7.20
2018-11-14T15:08:27.085Z,7.30
2018-11-14T15:10:55.354Z,7.30
2018-11-14T15:13:23.669Z,7.30
2018-11-14T15:15:51.990Z,7.20
2018-11-14T15:18:20.327Z,7.10
2018-11-14T15:20:48.563Z,6.90
2018-11-14T15:23:16.959Z,7.00
2018-11-14T15:25:45.371Z,6.90
2018-11-14T15:28:13.569Z,6.80
2018-11-14T15:30:41.845Z,6.90
2018-11-14T15:33:10.115Z,6.70
2018-11-14T15:35:38.835Z,6.70
2018-11-14T15:38:07.682Z,6.70
2018-11-14T15:40:36.380Z,6.50
2018-11-14T15:43:04.698Z,6.50
2018-11-14T15:45:34.203Z,6.50
2018-11-14T15:48:02.415Z,6.50
2018-11-14T15:50:31.430Z,6.50
2018-11-14T15:53:00.011Z,6.50
2018-11-14T15:55:28.393Z,6.40
2018-11-14T15:57:57.064Z,6.40
2018-11-14T16:00:28.407Z,6.40
2018-11-14T16:02:56.815Z,6.50
2018-11-14T16:05:26.167Z,6.40
2018-11-14T16:07:55.682Z,6.50
2018-11-14T16:10:24.958Z,6.50
2018-11-14T16:12:53.275Z,6.40
2018-11-14T16:15:24.053Z,6.30
2018-11-14T16:17:52.508Z,6.30
2018-11-14T16:20:22.131Z,6.50
2018-11-14T16:22:50.474Z,6.50
2018-11-14T16:25:20.011Z,6.50
2018-11-14T16:27:49.205Z,6.40
2018-11-14T16:30:19.412Z,6.30
2018-11-14T16:32:48.930Z,6.20
2018-11-14T16:35:17.263Z,6.30
2018-11-14T16:37:45.874Z,6.30
2018-11-14T16:40:15.748Z,6.30
2018-11-14T16:42:44.106Z,6.40
2018-11-14T16:45:13.190Z,6.40
2018-11-14T16:47:41.608Z,6.40
2018-11-14T16:50:11.505Z,6.40
2018-11-14T16:52:39.825Z,6.40
2018-11-14T16:55:09.386Z,6.40
2018-11-14T16:57:38.579Z,6.30
2018-11-14T17:00:09.736Z,6.20
2018-11-14T17:02:38.018Z,6.20
2018-11-14T17:05:06.268Z,6.30
2018-11-14T17:07:34.504Z,6.30
2018-11-14T17:10:02.782Z,6.30
2018-11-14T17:12:31.083Z,6.30
2018-11-14T17:14:59.513Z,6.40
2018-11-14T17:17:27.707Z,6.40
2018-11-14T17:19:55.982Z,6.50
2018-11-14T17:22:24.290Z,6.60
2018-11-14T17:24:52.707Z,6.50
2018-11-14T17:27:20.950Z,6.50
2018-11-14T17:29:49.252Z,6.50
2018-11-14T17:32:17.483Z,6.40
2018-11-14T17:34:45.751Z,6.40
2018-11-14T17:37:13.979Z,6.30
2018-11-14T17:39:42.327Z,6.30
2018-11-14T17:42:10.884Z,6.30
2018-11-14T17:44:38.821Z,6.30
2018-11-14T17:47:07.054Z,6.20
2018-11-14T17:49:35.312Z,6.20
2018-11-14T17:52:10.151Z,6.30
2018-11-14T17:54:38.400Z,6.20
2018-11-14T17:57:06.788Z,6.20
2018-11-14T17:59:35.045Z,6.20
2018-11-14T18:02:03.336Z,6.20
2018-11-14T18:04:31.605Z,6.20
2018-11-14T18:06:59.841Z,6.30
2018-11-14T18:09:28.095Z,6.30
2018-11-14T18:11:56.359Z,6.30
2018-11-14T18:14:24.636Z,6.30
2018-11-14T18:16:52.946Z,6.40
2018-11-14T18:19:21.291Z,6.50
2018-11-14T18:21:49.510Z,6.40
2018-11-14T18:24:17.787Z,6.50
2018-11-14T18:26:45.994Z,6.50
2018-11-14T18:29:14.206Z,6.50
2018-11-14T18:31:42.466Z,6.60
2018-11-14T18:34:10.680Z,6.50
2018-11-14T18:36:38.900Z,6.50
2018-11-14T18:39:10.194Z,6.50
2018-11-14T18:41:38.454Z,6.60
2018-11-14T18:44:06.713Z,6.60
2018-11-14T18:46:35.803Z,6.50
2018-11-14T18:49:04.036Z,6.60
2018-11-14T18:51:32.247Z,6.50
2018-11-14T18:54:00.494Z,6.50
2018-11-14T18:56:28.762Z,6.40
2018-11-14T18:58:56.966Z,6.30
2018-11-14T19:01:25.214Z,6.30
2018-11-14T19:03:53.414Z,6.40
2018-11-14T19:06:21.654Z,6.50
2018-11-14T19:08:50.193Z,6.60
2018-11-14T19:11:18.404Z,6.40
2018-11-14T19:13:46.623Z,6.30
2018-11-14T19:16:14.812Z,6.30
2018-11-14T19:18:43.157Z,6.30
2018-11-14T19:21:11.366Z,6.30
2018-11-14T19:23:39.671Z,6.30
2018-11-14T19:26:07.968Z,6.30
2018-11-14T19:28:36.382Z,6.30
2018-11-14T19:31:04.862Z,6.30
2018-11-14T19:33:33.151Z,6.40
2018-11-14T19:36:01.352Z,6.40
2018-11-14T19:38:29.567Z,6.40
2018-11-14T19:40:57.872Z,6.40
2018-11-14T19:43:26.143Z,6.30
2018-11-14T19:45:54.375Z,6.30
2018-11-14T19:48:22.611Z,6.30
2018-11-14T19:50:50.827Z,6.20
2018-11-14T19:53:19.062Z,6.20
2018-11-14T19:55:47.319Z,6.30
2018-11-14T19:58:15.630Z,6.20
2018-11-14T20:00:43.924Z,6.20
2018-11-14T20:03:12.179Z,6.20
2018-11-14T20:05:40.378Z,6.20
2018-11-14T20:08:08.659Z,6.30
2018-11-14T20:10:37.071Z,6.20
2018-11-14T20:13:05.260Z,6.30
2018-11-14T20:15:34.661Z,6.30
2018-11-14T20:18:02.987Z,6.30
2018-11-14T20:20:32.653Z,6.20
2018-11-14T20:23:01.033Z,6.20
2018-11-14T20:25:29.400Z,6.20
2018-11-14T20:27:57.640Z,6.20
2018-11-14T20:30:27.192Z,6.30
2018-11-14T20:32:56.619Z,6.20
2018-11-14T20:35:25.716Z,6.20
2018-11-14T20:37:53.957Z,6.20
2018-11-14T20:40:22.809Z,6.20
2018-11-14T20:42:53.686Z,6.20
2018-11-14T20:45:25.449Z,6.20
2018-11-14T20:47:53.678Z,6.20
2018-11-14T20:50:23.172Z,6.10
2018-11-14T20:52:53.253Z,6.10
2018-11-14T20:55:21.520Z,6.00
2018-11-14T20:57:49.781Z,6.10
2018-11-14T21:00:25.366Z,6.10
2018-11-14T21:02:53.737Z,6.10
2018-11-14T21:05:22.153Z,6.10
2018-11-14T21:07:50.483Z,6.20
2018-11-14T21:10:20.027Z,6.10
2018-11-14T21:12:48.963Z,6.20
2018-11-14T21:15:20.461Z,6.20
2018-11-14T21:17:49.374Z,6.30
2018-11-14T21:20:17.602Z,6.20
2018-11-14T21:22:45.852Z,6.30
2018-11-14T21:25:16.133Z,6.20
2018-11-14T21:27:45.355Z,6.20
2018-11-14T21:30:15.194Z,6.30
2018-11-14T21:32:43.643Z,6.40
2018-11-14T21:35:18.439Z,6.40
2018-11-14T21:37:47.990Z,6.40
2018-11-14T21:40:16.241Z,6.50
2018-11-14T21:42:44.494Z,6.60
2018-11-14T21:45:15.535Z,6.70
2018-11-14T21:47:49.055Z,6.80
2018-11-14T21:50:18.076Z,6.90
2018-11-14T21:52:46.889Z,6.80
2018-11-14T21:55:15.189Z,6.80
2018-11-14T21:57:43.444Z,6.80
2018-11-14T22:00:14.867Z,6.80
2018-11-14T22:02:44.837Z,6.90
2018-11-14T22:05:13.106Z,7.00
2018-11-14T22:07:41.358Z,7.00
2018-11-14T22:10:13.125Z,7.00
2018-11-14T22:12:41.991Z,6.90
2018-11-14T22:15:10.887Z,6.80
2018-11-14T22:17:39.862Z,6.80
2018-11-14T22:20:14.921Z,6.70
2018-11-14T22:22:43.932Z,6.70
2018-11-14T22:25:13.563Z,6.70
2018-11-14T22:27:41.971Z,6.80
2018-11-14T22:30:14.288Z,6.70
2018-11-14T22:32:42.623Z,6.80
2018-11-14T22:35:12.602Z,6.80
2018-11-14T22:37:41.041Z,6.80
2018-11-14T22:40:12.501Z,6.80
2018-11-14T22:42:40.767Z,6.80
2018-11-14T22:45:11.194Z,6.90
2018-11-14T22:47:40.091Z,6.90
2018-11-14T22:50:09.486Z,6.90
2018-11-14T22:52:38.186Z,7.00
2018-11-14T22:55:07.486Z,6.90
2018-11-14T22:57:35.965Z,6.90
2018-11-14T23:00:08.158Z,6.90
2018-11-14T23:02:36.458Z,7.00
2018-11-14T23:05:04.744Z,7.00
2018-11-14T23:07:33.005Z,7.00
2018-11-14T23:10:01.295Z,6.90
2018-11-14T23:12:29.511Z,6.90
2018-11-14T23:14:57.734Z,6.90
2018-11-14T23:17:25.988Z,6.90
2018-11-14T23:20:02.419Z,6.80
2018-11-14T23:22:30.756Z,6.80
2018-11-14T23:24:59.029Z,6.80
2018-11-14T23:27:27.270Z,6.80
2018-11-14T23:29:55.522Z,6.90
2018-11-14T23:32:23.826Z,7.00
2018-11-14T23:34:57.618Z,6.90
2018-11-14T23:37:25.837Z,7.00
2018-11-14T23:39:54.090Z,6.90
2018-11-14T23:42:22.342Z,6.90
2018-11-14T23:44:50.543Z,6.80
2018-11-14T23:47:18.915Z,6.90
2018-11-14T23:49:47.147Z,7.00
2018-11-14T23:52:15.375Z,7.00
2018-11-14T23:54:43.635Z,7.00
2018-11-14T23:57:11.899Z,7.00
2018-11-14T23:59:40.206Z,7.10
